sensor_id;sensor_type;location;lat;lon;timestamp;pressure;altitude;pressure_sealevel;temperature;humidity
48404;BME280;34202;52.536;6.042;2022-12-18T00:04:42;102976.92;;;-3.04;100.00
48404;BME280;34202;52.536;6.042;2022-12-18T00:09:43;102966.23;;;-3.08;100.00
48404;BME280;34202;52.536;6.042;2022-12-18T00:14:43;102969.88;;;-3.11;100.00
48404;BME280;34202;52.536;6.042;2022-12-18T00:19:43;102973.20;;;-3.12;100.00
48404;BME280;34202;52.536;6.042;2022-12-18T00:24:43;102947.60;;;-3.12;100.00
48404;BME280;34202;52.536;6.042;2022-12-18T00:29:44;102935.80;;;-3.15;100.00
48404;BME280;34202;52.536;6.042;2022-12-18T00:34:44;102943.39;;;-3.19;100.00
48404;BME280;34202;52.536;6.042;2022-12-18T00:39:44;102941.35;;;-3.22;100.00
48404;BME280;34202;52.536;6.042;2022-12-18T00:44:45;102944.86;;;-3.24;100.00
48404;BME280;34202;52.536;6.042;2022-12-18T00:49:45;102953.31;;;-3.27;100.00
48404;BME280;34202;52.536;6.042;2022-12-18T00:54:45;102949.42;;;-3.34;100.00
48404;BME280;34202;52.536;6.042;2022-12-18T00:59:46;102950.42;;;-3.41;100.00
48404;BME280;34202;52.536;6.042;2022-12-18T01:04:46;102939.30;;;-3.45;100.00
48404;BME280;34202;52.536;6.042;2022-12-18T01:09:46;102941.41;;;-3.48;100.00
48404;BME280;34202;52.536;6.042;2022-12-18T01:14:47;102942.58;;;-3.52;100.00
48404;BME280;34202;52.536;6.042;2022-12-18T01:19:47;102944.75;;;-3.58;100.00
48404;BME280;34202;52.536;6.042;2022-12-18T01:24:48;102945.48;;;-3.61;100.00
48404;BME280;34202;52.536;6.042;2022-12-18T01:29:49;102938.69;;;-3.66;100.00
48404;BME280;34202;52.536;6.042;2022-12-18T01:34:49;102939.20;;;-3.71;100.00
48404;BME280;34202;52.536;6.042;2022-12-18T01:39:49;102942.02;;;-3.77;100.00
48404;BME280;34202;52.536;6.042;2022-12-18T01:45:22;102944.54;;;-3.81;100.00
48404;BME280;34202;52.536;6.042;2022-12-18T01:55:35;102957.34;;;-3.85;100.00
48404;BME280;34202;52.536;6.042;2022-12-18T02:00:37;102961.86;;;-3.88;100.00
48404;BME280;34202;52.536;6.042;2022-12-18T02:11:20;102973.41;;;-3.95;100.00
48404;BME280;34202;52.536;6.042;2022-12-18T02:16:36;102967.39;;;-4.01;100.00
48404;BME280;34202;52.536;6.042;2022-12-18T02:21:52;102962.93;;;-4.06;100.00
48404;BME280;34202;52.536;6.042;2022-12-18T02:26:58;102963.91;;;-4.09;100.00
48404;BME280;34202;52.536;6.042;2022-12-18T02:32:02;102968.09;;;-4.13;100.00
48404;BME280;34202;52.536;6.042;2022-12-18T02:37:07;102972.44;;;-4.15;100.00
48404;BME280;34202;52.536;6.042;2022-12-18T02:42:10;102976.42;;;-4.18;100.00
48404;BME280;34202;52.536;6.042;2022-12-18T02:47:12;102973.63;;;-4.22;100.00
48404;BME280;34202;52.536;6.042;2022-12-18T02:57:41;102961.99;;;-4.30;100.00
48404;BME280;34202;52.536;6.042;2022-12-18T03:03:06;102953.67;;;-4.31;100.00
48404;BME280;34202;52.536;6.042;2022-12-18T03:08:18;102945.09;;;-4.34;100.00
48404;BME280;34202;52.536;6.042;2022-12-18T03:13:25;102926.48;;;-4.36;100.00
48404;BME280;34202;52.536;6.042;2022-12-18T03:18:48;102933.16;;;-4.42;100.00
48404;BME280;34202;52.536;6.042;2022-12-18T03:23:51;102944.29;;;-4.50;100.00
48404;BME280;34202;52.536;6.042;2022-12-18T03:28:57;102945.89;;;-4.58;100.00
48404;BME280;34202;52.536;6.042;2022-12-18T03:34:04;102943.10;;;-4.65;100.00
48404;BME280;34202;52.536;6.042;2022-12-18T03:39:05;102940.73;;;-4.70;100.00
48404;BME280;34202;52.536;6.042;2022-12-18T03:44:21;102935.54;;;-4.73;100.00
48404;BME280;34202;52.536;6.042;2022-12-18T03:49:48;102933.32;;;-4.76;100.00
48404;BME280;34202;52.536;6.042;2022-12-18T03:54:53;102936.02;;;-4.80;100.00
48404;BME280;34202;52.536;6.042;2022-12-18T03:59:58;102931.39;;;-4.82;100.00
48404;BME280;34202;52.536;6.042;2022-12-18T04:05:03;102925.52;;;-4.83;100.00
48404;BME280;34202;52.536;6.042;2022-12-18T04:10:06;102919.80;;;-4.87;100.00
48404;BME280;34202;52.536;6.042;2022-12-18T04:15:09;102912.23;;;-4.92;100.00
48404;BME280;34202;52.536;6.042;2022-12-18T04:20:09;102911.55;;;-4.93;100.00
48404;BME280;34202;52.536;6.042;2022-12-18T04:25:10;102906.66;;;-4.96;100.00
48404;BME280;34202;52.536;6.042;2022-12-18T04:30:10;102906.79;;;-4.98;100.00
48404;BME280;34202;52.536;6.042;2022-12-18T04:35:11;102903.50;;;-5.00;100.00
48404;BME280;34202;52.536;6.042;2022-12-18T04:40:12;102910.15;;;-5.05;100.00
48404;BME280;34202;52.536;6.042;2022-12-18T04:45:12;102909.34;;;-5.07;100.00
48404;BME280;34202;52.536;6.042;2022-12-18T04:50:13;102911.06;;;-5.08;100.00
48404;BME280;34202;52.536;6.042;2022-12-18T04:55:13;102922.27;;;-5.10;100.00
48404;BME280;34202;52.536;6.042;2022-12-18T05:00:14;102923.72;;;-5.12;100.00
48404;BME280;34202;52.536;6.042;2022-12-18T05:05:14;102920.93;;;-5.14;100.00
48404;BME280;34202;52.536;6.042;2022-12-18T05:10:15;102921.97;;;-5.16;100.00
48404;BME280;34202;52.536;6.042;2022-12-18T05:15:15;102921.52;;;-5.20;100.00
48404;BME280;34202;52.536;6.042;2022-12-18T05:20:15;102921.35;;;-5.25;100.00
48404;BME280;34202;52.536;6.042;2022-12-18T05:25:16;102925.64;;;-5.28;100.00
48404;BME280;34202;52.536;6.042;2022-12-18T05:30:17;102928.58;;;-5.32;100.00
48404;BME280;34202;52.536;6.042;2022-12-18T05:35:17;102933.10;;;-5.35;100.00
48404;BME280;34202;52.536;6.042;2022-12-18T05:40:18;102947.06;;;-5.35;100.00
48404;BME280;34202;52.536;6.042;2022-12-18T05:45:18;102950.52;;;-5.38;100.00
48404;BME280;34202;52.536;6.042;2022-12-18T05:50:18;102944.69;;;-5.40;100.00
48404;BME280;34202;52.536;6.042;2022-12-18T05:55:19;102949.37;;;-5.39;100.00
48404;BME280;34202;52.536;6.042;2022-12-18T06:00:19;102955.55;;;-5.39;100.00
48404;BME280;34202;52.536;6.042;2022-12-18T06:05:19;102951.84;;;-5.39;100.00
48404;BME280;34202;52.536;6.042;2022-12-18T06:10:20;102948.99;;;-5.38;100.00
48404;BME280;34202;52.536;6.042;2022-12-18T06:15:20;102948.98;;;-5.40;100.00
48404;BME280;34202;52.536;6.042;2022-12-18T06:20:21;102948.29;;;-5.42;100.00
48404;BME280;34202;52.536;6.042;2022-12-18T06:25:21;102941.48;;;-5.42;100.00
48404;BME280;34202;52.536;6.042;2022-12-18T06:30:22;102933.38;;;-5.42;100.00
48404;BME280;34202;52.536;6.042;2022-12-18T06:35:22;102928.73;;;-5.42;100.00
48404;BME280;34202;52.536;6.042;2022-12-18T06:40:23;102923.98;;;-5.42;100.00
48404;BME280;34202;52.536;6.042;2022-12-18T06:45:23;102917.56;;;-5.42;100.00
48404;BME280;34202;52.536;6.042;2022-12-18T06:50:24;102907.30;;;-5.42;100.00
48404;BME280;34202;52.536;6.042;2022-12-18T06:55:24;102901.98;;;-5.43;100.00
48404;BME280;34202;52.536;6.042;2022-12-18T07:00:24;102901.15;;;-5.45;100.00
48404;BME280;34202;52.536;6.042;2022-12-18T07:05:25;102897.21;;;-5.47;100.00
48404;BME280;34202;52.536;6.042;2022-12-18T07:10:25;102885.72;;;-5.46;100.00
48404;BME280;34202;52.536;6.042;2022-12-18T07:15:26;102884.88;;;-5.46;100.00
48404;BME280;34202;52.536;6.042;2022-12-18T07:20:26;102884.40;;;-5.46;100.00
48404;BME280;34202;52.536;6.042;2022-12-18T07:25:26;102881.88;;;-5.47;100.00
48404;BME280;34202;52.536;6.042;2022-12-18T07:30:27;102892.70;;;-5.48;100.00
48404;BME280;34202;52.536;6.042;2022-12-18T07:35:27;102900.33;;;-5.48;100.00
48404;BME280;34202;52.536;6.042;2022-12-18T07:40:28;102893.95;;;-5.47;100.00
48404;BME280;34202;52.536;6.042;2022-12-18T07:45:29;102889.64;;;-5.46;100.00
48404;BME280;34202;52.536;6.042;2022-12-18T07:50:29;102891.81;;;-5.46;100.00
48404;BME280;34202;52.536;6.042;2022-12-18T07:55:31;102903.45;;;-5.46;100.00
48404;BME280;34202;52.536;6.042;2022-12-18T08:00:31;102892.36;;;-5.45;100.00
48404;BME280;34202;52.536;6.042;2022-12-18T08:05:31;102880.13;;;-5.45;100.00
48404;BME280;34202;52.536;6.042;2022-12-18T08:10:32;102873.30;;;-5.45;100.00
48404;BME280;34202;52.536;6.042;2022-12-18T08:15:32;102861.41;;;-5.45;100.00
48404;BME280;34202;52.536;6.042;2022-12-18T08:20:32;102855.41;;;-5.42;100.00
48404;BME280;34202;52.536;6.042;2022-12-18T08:25:33;102852.33;;;-5.38;100.00
48404;BME280;34202;52.536;6.042;2022-12-18T08:30:33;102843.98;;;-5.33;100.00
48404;BME280;34202;52.536;6.042;2022-12-18T08:35:36;102842.00;;;-5.28;100.00
48404;BME280;34202;52.536;6.042;2022-12-18T08:40:36;102839.14;;;-5.20;100.00
48404;BME280;34202;52.536;6.042;2022-12-18T08:45:37;102840.09;;;-5.14;100.00
48404;BME280;34202;52.536;6.042;2022-12-18T08:50:37;102837.07;;;-5.08;100.00
48404;BME280;34202;52.536;6.042;2022-12-18T08:55:37;102829.76;;;-4.99;100.00
48404;BME280;34202;52.536;6.042;2022-12-18T09:00:38;102840.39;;;-4.90;100.00
48404;BME280;34202;52.536;6.042;2022-12-18T09:05:38;102846.53;;;-4.79;100.00
48404;BME280;34202;52.536;6.042;2022-12-18T09:10:43;102845.84;;;-4.73;100.00
48404;BME280;34202;52.536;6.042;2022-12-18T09:15:46;102843.07;;;-4.65;100.00
48404;BME280;34202;52.536;6.042;2022-12-18T09:20:47;102832.50;;;-4.56;100.00
48404;BME280;34202;52.536;6.042;2022-12-18T09:25:48;102833.36;;;-4.48;100.00
48404;BME280;34202;52.536;6.042;2022-12-18T09:30:49;102842.80;;;-4.40;100.00
48404;BME280;34202;52.536;6.042;2022-12-18T09:35:50;102840.84;;;-4.32;100.00
48404;BME280;34202;52.536;6.042;2022-12-18T09:40:53;102847.48;;;-4.25;100.00
48404;BME280;34202;52.536;6.042;2022-12-18T09:46:01;102866.66;;;-4.19;100.00
48404;BME280;34202;52.536;6.042;2022-12-18T09:56:54;102834.39;;;-4.04;100.00
48404;BME280;34202;52.536;6.042;2022-12-18T10:01:54;102816.17;;;-3.97;100.00
48404;BME280;34202;52.536;6.042;2022-12-18T10:12:14;102767.14;;;-3.80;100.00
48404;BME280;34202;52.536;6.042;2022-12-18T10:23:33;102751.31;;;-3.57;100.00
48404;BME280;34202;52.536;6.042;2022-12-18T10:28:40;102753.17;;;-3.44;100.00
48404;BME280;34202;52.536;6.042;2022-12-18T10:33:40;102745.87;;;-3.33;100.00
48404;BME280;34202;52.536;6.042;2022-12-18T10:38:41;102751.42;;;-3.22;100.00
48404;BME280;34202;52.536;6.042;2022-12-18T10:43:41;102755.31;;;-3.12;100.00
48404;BME280;34202;52.536;6.042;2022-12-18T10:53:56;102725.64;;;-2.90;100.00
48404;BME280;34202;52.536;6.042;2022-12-18T10:59:08;102718.07;;;-2.79;100.00
48404;BME280;34202;52.536;6.042;2022-12-18T11:04:09;102714.55;;;-2.69;100.00
48404;BME280;34202;52.536;6.042;2022-12-18T11:09:20;102711.27;;;-2.60;100.00
48404;BME280;34202;52.536;6.042;2022-12-18T11:14:32;102718.80;;;-2.52;100.00
48404;BME280;34202;52.536;6.042;2022-12-18T11:19:41;102722.45;;;-2.44;100.00
48404;BME280;34202;52.536;6.042;2022-12-18T11:24:41;102727.64;;;-2.35;100.00
48404;BME280;34202;52.536;6.042;2022-12-18T11:29:42;102728.14;;;-2.28;100.00
48404;BME280;34202;52.536;6.042;2022-12-18T11:34:46;102717.73;;;-2.20;100.00
48404;BME280;34202;52.536;6.042;2022-12-18T11:39:56;102693.53;;;-2.14;100.00
48404;BME280;34202;52.536;6.042;2022-12-18T11:45:03;102674.27;;;-2.07;100.00
48404;BME280;34202;52.536;6.042;2022-12-18T11:50:17;102670.34;;;-2.02;100.00
48404;BME280;34202;52.536;6.042;2022-12-18T11:55:30;102671.13;;;-1.97;100.00
48404;BME280;34202;52.536;6.042;2022-12-18T12:00:36;102661.05;;;-1.91;100.00
48404;BME280;34202;52.536;6.042;2022-12-18T12:16:04;102622.30;;;-1.75;99.97
48404;BME280;34202;52.536;6.042;2022-12-18T12:26:15;102594.66;;;-1.65;99.79
48404;BME280;34202;52.536;6.042;2022-12-18T12:31:25;102596.04;;;-1.60;99.91
48404;BME280;34202;52.536;6.042;2022-12-18T12:36:36;102598.30;;;-1.56;99.77
48404;BME280;34202;52.536;6.042;2022-12-18T12:41:41;102585.76;;;-1.51;99.56
48404;BME280;34202;52.536;6.042;2022-12-18T12:47:11;102586.84;;;-1.46;99.46
48404;BME280;34202;52.536;6.042;2022-12-18T12:57:37;102559.69;;;-1.38;99.03
48404;BME280;34202;52.536;6.042;2022-12-18T13:03:08;102548.56;;;-1.33;98.81
48404;BME280;34202;52.536;6.042;2022-12-18T13:08:31;102546.56;;;-1.29;98.90
48404;BME280;34202;52.536;6.042;2022-12-18T13:13:51;102544.17;;;-1.25;98.76
48404;BME280;34202;52.536;6.042;2022-12-18T13:18:56;102542.23;;;-1.21;98.26
48404;BME280;34202;52.536;6.042;2022-12-18T13:24:23;102541.23;;;-1.19;98.25
48404;BME280;34202;52.536;6.042;2022-12-18T13:29:43;102536.36;;;-1.16;98.12
48404;BME280;34202;52.536;6.042;2022-12-18T13:34:44;102532.55;;;-1.12;98.16
48404;BME280;34202;52.536;6.042;2022-12-18T13:39:44;102522.16;;;-1.09;97.96
48404;BME280;34202;52.536;6.042;2022-12-18T13:44:44;102516.02;;;-1.07;97.97
48404;BME280;34202;52.536;6.042;2022-12-18T13:49:46;102514.34;;;-1.05;97.74
48404;BME280;34202;52.536;6.042;2022-12-18T13:54:55;102514.53;;;-1.02;97.54
48404;BME280;34202;52.536;6.042;2022-12-18T13:59:59;102511.73;;;-0.99;97.55
48404;BME280;34202;52.536;6.042;2022-12-18T14:05:26;102505.62;;;-0.96;97.32
48404;BME280;34202;52.536;6.042;2022-12-18T14:10:27;102516.05;;;-0.94;97.10
48404;BME280;34202;52.536;6.042;2022-12-18T14:15:43;102525.27;;;-0.92;97.15
48404;BME280;34202;52.536;6.042;2022-12-18T14:20:44;102506.63;;;-0.90;96.95
48404;BME280;34202;52.536;6.042;2022-12-18T14:25:45;102498.60;;;-0.90;96.76
48404;BME280;34202;52.536;6.042;2022-12-18T14:30:46;102496.09;;;-0.89;96.58
48404;BME280;34202;52.536;6.042;2022-12-18T14:35:57;102484.27;;;-0.89;96.47
48404;BME280;34202;52.536;6.042;2022-12-18T14:41:11;102461.36;;;-0.89;96.20
48404;BME280;34202;52.536;6.042;2022-12-18T14:46:42;102451.88;;;-0.91;95.96
48404;BME280;34202;52.536;6.042;2022-12-18T14:51:57;102427.98;;;-0.92;95.83
48404;BME280;34202;52.536;6.042;2022-12-18T15:02:25;102414.69;;;-0.94;95.73
48404;BME280;34202;52.536;6.042;2022-12-18T15:07:26;102413.09;;;-0.95;95.65
48404;BME280;34202;52.536;6.042;2022-12-18T15:12:42;102407.38;;;-0.96;95.55
48404;BME280;34202;52.536;6.042;2022-12-18T15:17:43;102397.09;;;-0.96;95.48
48404;BME280;34202;52.536;6.042;2022-12-18T15:22:47;102394.48;;;-0.97;95.45
48404;BME280;34202;52.536;6.042;2022-12-18T15:27:47;102385.91;;;-0.98;95.30
48404;BME280;34202;52.536;6.042;2022-12-18T15:32:48;102379.52;;;-0.98;95.31
48404;BME280;34202;52.536;6.042;2022-12-18T15:37:50;102384.94;;;-0.97;95.24
48404;BME280;34202;52.536;6.042;2022-12-18T15:42:53;102384.64;;;-0.96;95.40
48404;BME280;34202;52.536;6.042;2022-12-18T15:48:21;102383.14;;;-0.93;95.45
48404;BME280;34202;52.536;6.042;2022-12-18T15:53:29;102379.71;;;-0.91;95.45
48404;BME280;34202;52.536;6.042;2022-12-18T15:58:30;102371.30;;;-0.89;95.36
48404;BME280;34202;52.536;6.042;2022-12-18T16:03:30;102365.44;;;-0.88;95.21
48404;BME280;34202;52.536;6.042;2022-12-18T16:08:31;102362.12;;;-0.87;95.15
48404;BME280;34202;52.536;6.042;2022-12-18T16:13:31;102361.06;;;-0.85;94.94
48404;BME280;34202;52.536;6.042;2022-12-18T16:18:31;102365.35;;;-0.82;94.90
48404;BME280;34202;52.536;6.042;2022-12-18T16:23:32;102361.80;;;-0.82;94.78
48404;BME280;34202;52.536;6.042;2022-12-18T16:28:32;102347.98;;;-0.82;94.73
48404;BME280;34202;52.536;6.042;2022-12-18T16:33:32;102343.36;;;-0.82;94.60
48404;BME280;34202;52.536;6.042;2022-12-18T16:38:33;102337.18;;;-0.80;94.62
48404;BME280;34202;52.536;6.042;2022-12-18T16:43:33;102320.64;;;-0.79;94.52
48404;BME280;34202;52.536;6.042;2022-12-18T16:48:33;102319.64;;;-0.79;94.32
48404;BME280;34202;52.536;6.042;2022-12-18T16:53:34;102321.30;;;-0.77;94.37
48404;BME280;34202;52.536;6.042;2022-12-18T16:58:34;102292.95;;;-0.77;94.28
48404;BME280;34202;52.536;6.042;2022-12-18T17:03:35;102295.89;;;-0.76;94.28
48404;BME280;34202;52.536;6.042;2022-12-18T17:08:35;102298.42;;;-0.77;94.19
48404;BME280;34202;52.536;6.042;2022-12-18T17:13:35;102274.34;;;-0.76;94.08
48404;BME280;34202;52.536;6.042;2022-12-18T17:18:36;102261.48;;;-0.74;94.20
48404;BME280;34202;52.536;6.042;2022-12-18T17:23:37;102253.38;;;-0.73;94.12
48404;BME280;34202;52.536;6.042;2022-12-18T17:28:38;102258.76;;;-0.72;94.02
48404;BME280;34202;52.536;6.042;2022-12-18T17:33:39;102259.80;;;-0.72;94.25
48404;BME280;34202;52.536;6.042;2022-12-18T17:38:40;102260.90;;;-0.71;94.10
48404;BME280;34202;52.536;6.042;2022-12-18T17:43:40;102264.56;;;-0.70;94.18
48404;BME280;34202;52.536;6.042;2022-12-18T17:48:46;102266.67;;;-0.69;94.05
48404;BME280;34202;52.536;6.042;2022-12-18T17:53:47;102262.31;;;-0.68;94.04
48404;BME280;34202;52.536;6.042;2022-12-18T17:58:48;102244.37;;;-0.68;93.93
48404;BME280;34202;52.536;6.042;2022-12-18T18:03:50;102243.30;;;-0.66;94.02
48404;BME280;34202;52.536;6.042;2022-12-18T18:08:50;102246.69;;;-0.64;94.11
48404;BME280;34202;52.536;6.042;2022-12-18T18:13:51;102246.27;;;-0.63;94.27
48404;BME280;34202;52.536;6.042;2022-12-18T18:19:06;102236.98;;;-0.62;93.93
48404;BME280;34202;52.536;6.042;2022-12-18T18:24:08;102235.90;;;-0.60;93.96
48404;BME280;34202;52.536;6.042;2022-12-18T18:29:13;102237.98;;;-0.60;93.99
48404;BME280;34202;52.536;6.042;2022-12-18T18:34:19;102245.40;;;-0.59;93.88
48404;BME280;34202;52.536;6.042;2022-12-18T18:39:20;102243.39;;;-0.58;93.78
48404;BME280;34202;52.536;6.042;2022-12-18T18:44:20;102239.50;;;-0.57;93.82
48404;BME280;34202;52.536;6.042;2022-12-18T18:49:22;102243.50;;;-0.56;93.79
48404;BME280;34202;52.536;6.042;2022-12-18T18:54:24;102241.52;;;-0.55;93.79
48404;BME280;34202;52.536;6.042;2022-12-18T18:59:25;102239.70;;;-0.55;93.69
48404;BME280;34202;52.536;6.042;2022-12-18T19:04:25;102236.73;;;-0.53;93.53
48404;BME280;34202;52.536;6.042;2022-12-18T19:09:26;102227.20;;;-0.52;93.54
48404;BME280;34202;52.536;6.042;2022-12-18T19:14:26;102223.57;;;-0.51;93.55
48404;BME280;34202;52.536;6.042;2022-12-18T19:19:27;102214.05;;;-0.50;93.42
48404;BME280;34202;52.536;6.042;2022-12-18T19:24:27;102201.38;;;-0.50;93.41
48404;BME280;34202;52.536;6.042;2022-12-18T19:29:27;102207.27;;;-0.49;93.29
48404;BME280;34202;52.536;6.042;2022-12-18T19:34:28;102199.95;;;-0.49;93.30
48404;BME280;34202;52.536;6.042;2022-12-18T19:39:28;102187.61;;;-0.49;93.37
48404;BME280;34202;52.536;6.042;2022-12-18T19:44:28;102193.34;;;-0.48;93.37
48404;BME280;34202;52.536;6.042;2022-12-18T19:49:29;102194.39;;;-0.48;93.20
48404;BME280;34202;52.536;6.042;2022-12-18T19:54:31;102197.34;;;-0.47;93.32
48404;BME280;34202;52.536;6.042;2022-12-18T19:59:31;102198.80;;;-0.46;93.40
48404;BME280;34202;52.536;6.042;2022-12-18T20:04:31;102199.52;;;-0.45;93.43
48404;BME280;34202;52.536;6.042;2022-12-18T20:09:32;102199.13;;;-0.44;93.50
48404;BME280;34202;52.536;6.042;2022-12-18T20:14:32;102200.29;;;-0.42;93.64
48404;BME280;34202;52.536;6.042;2022-12-18T20:19:32;102200.09;;;-0.40;93.63
48404;BME280;34202;52.536;6.042;2022-12-18T20:24:33;102199.88;;;-0.38;93.62
48404;BME280;34202;52.536;6.042;2022-12-18T20:29:33;102190.52;;;-0.37;93.60
48404;BME280;34202;52.536;6.042;2022-12-18T20:34:34;102185.25;;;-0.34;93.66
48404;BME280;34202;52.536;6.042;2022-12-18T20:39:34;102187.44;;;-0.33;93.72
48404;BME280;34202;52.536;6.042;2022-12-18T20:44:35;102184.33;;;-0.31;93.64
48404;BME280;34202;52.536;6.042;2022-12-18T20:49:35;102176.41;;;-0.29;93.57
48404;BME280;34202;52.536;6.042;2022-12-18T20:54:36;102172.92;;;-0.28;93.77
48404;BME280;34202;52.536;6.042;2022-12-18T20:59:36;102169.11;;;-0.26;93.72
48404;BME280;34202;52.536;6.042;2022-12-18T21:04:36;102167.02;;;-0.24;93.81
48404;BME280;34202;52.536;6.042;2022-12-18T21:09:37;102166.58;;;-0.23;94.02
48404;BME280;34202;52.536;6.042;2022-12-18T21:14:37;102171.27;;;-0.22;94.06
48404;BME280;34202;52.536;6.042;2022-12-18T21:19:37;102172.17;;;-0.21;94.45
48404;BME280;34202;52.536;6.042;2022-12-18T21:24:38;102173.48;;;-0.20;94.83
48404;BME280;34202;52.536;6.042;2022-12-18T21:29:38;102169.12;;;-0.18;95.14
48404;BME280;34202;52.536;6.042;2022-12-18T21:34:39;102159.05;;;-0.18;95.33
48404;BME280;34202;52.536;6.042;2022-12-18T21:39:40;102153.43;;;-0.17;95.69
48404;BME280;34202;52.536;6.042;2022-12-18T21:44:40;102144.73;;;-0.17;95.90
48404;BME280;34202;52.536;6.042;2022-12-18T21:49:41;102138.73;;;-0.17;95.93
48404;BME280;34202;52.536;6.042;2022-12-18T21:54:41;102135.48;;;-0.17;96.29
48404;BME280;34202;52.536;6.042;2022-12-18T21:59:41;102127.16;;;-0.16;96.55
48404;BME280;34202;52.536;6.042;2022-12-18T22:04:45;102106.29;;;-0.16;96.63
48404;BME280;34202;52.536;6.042;2022-12-18T22:09:46;102106.44;;;-0.16;96.95
48404;BME280;34202;52.536;6.042;2022-12-18T22:14:47;102103.45;;;-0.18;97.06
48404;BME280;34202;52.536;6.042;2022-12-18T22:19:47;102086.63;;;-0.19;97.26
48404;BME280;34202;52.536;6.042;2022-12-18T22:24:48;102084.45;;;-0.18;97.42
48404;BME280;34202;52.536;6.042;2022-12-18T22:29:48;102071.36;;;-0.19;97.78
48404;BME280;34202;52.536;6.042;2022-12-18T22:35:04;102065.20;;;-0.19;97.97
48404;BME280;34202;52.536;6.042;2022-12-18T22:40:05;102057.40;;;-0.18;98.25
48404;BME280;34202;52.536;6.042;2022-12-18T22:45:06;102045.15;;;-0.17;98.44
48404;BME280;34202;52.536;6.042;2022-12-18T22:50:06;102044.48;;;-0.17;98.60
48404;BME280;34202;52.536;6.042;2022-12-18T22:55:07;102023.44;;;-0.17;98.96
48404;BME280;34202;52.536;6.042;2022-12-18T23:00:08;102018.55;;;-0.15;99.23
48404;BME280;34202;52.536;6.042;2022-12-18T23:05:09;102011.55;;;-0.15;99.28
48404;BME280;34202;52.536;6.042;2022-12-18T23:10:09;102006.27;;;-0.15;99.58
48404;BME280;34202;52.536;6.042;2022-12-18T23:15:10;101988.02;;;-0.14;99.83
48404;BME280;34202;52.536;6.042;2022-12-18T23:20:10;101987.05;;;-0.14;99.86
48404;BME280;34202;52.536;6.042;2022-12-18T23:25:11;101968.45;;;-0.13;100.00
48404;BME280;34202;52.536;6.042;2022-12-18T23:30:11;101942.32;;;-0.12;100.00
48404;BME280;34202;52.536;6.042;2022-12-18T23:35:12;101930.77;;;-0.11;100.00
48404;BME280;34202;52.536;6.042;2022-12-18T23:40:12;101924.73;;;-0.09;100.00
48404;BME280;34202;52.536;6.042;2022-12-18T23:45:12;101906.80;;;-0.08;100.00
48404;BME280;34202;52.536;6.042;2022-12-18T23:50:13;101897.65;;;-0.07;100.00
48404;BME280;34202;52.536;6.042;2022-12-18T23:55:13;101889.19;;;-0.06;100.00
